sensor_id;sensor_type;location;lat;lon;timestamp;pressure;altitude;pressure_sealevel;temperature;humidity
9740;BME280;4909;42.680;26.324;2022-07-29T00:00:30;98650.28;;;25.68;49.70
9740;BME280;4909;42.680;26.324;2022-07-29T00:02:57;98656.06;;;25.73;49.72
9740;BME280;4909;42.680;26.324;2022-07-29T00:05:24;98650.13;;;25.69;49.86
9740;BME280;4909;42.680;26.324;2022-07-29T00:07:51;98628.81;;;25.57;49.67
9740;BME280;4909;42.680;26.324;2022-07-29T00:10:17;98638.53;;;25.59;50.43
9740;BME280;4909;42.680;26.324;2022-07-29T00:12:44;98642.66;;;25.45;50.05
9740;BME280;4909;42.680;26.324;2022-07-29T00:15:11;98628.34;;;25.35;51.01
9740;BME280;4909;42.680;26.324;2022-07-29T00:17:39;98636.69;;;25.42;49.66
9740;BME280;4909;42.680;26.324;2022-07-29T00:20:07;98628.66;;;25.32;51.12
9740;BME280;4909;42.680;26.324;2022-07-29T00:22:37;98633.19;;;25.24;50.17
9740;BME280;4909;42.680;26.324;2022-07-29T00:25:04;98571.75;;;24.97;50.58
9740;BME280;4909;42.680;26.324;2022-07-29T00:27:31;98628.00;;;25.38;50.17
9740;BME280;4909;42.680;26.324;2022-07-29T00:29:58;98623.28;;;25.40;49.87
9740;BME280;4909;42.680;26.324;2022-07-29T00:32:25;98630.34;;;25.33;50.00
9740;BME280;4909;42.680;26.324;2022-07-29T00:34:53;98628.66;;;25.32;50.33
9740;BME280;4909;42.680;26.324;2022-07-29T00:37:34;98621.72;;;25.38;50.62
9740;BME280;4909;42.680;26.324;2022-07-29T00:40:01;98616.88;;;25.49;49.65
9740;BME280;4909;42.680;26.324;2022-07-29T00:42:27;98624.50;;;25.46;49.25
9740;BME280;4909;42.680;26.324;2022-07-29T00:44:54;98624.81;;;25.43;49.09
9740;BME280;4909;42.680;26.324;2022-07-29T00:47:21;98622.47;;;25.48;50.12
9740;BME280;4909;42.680;26.324;2022-07-29T00:49:48;98625.00;;;25.41;50.46
9740;BME280;4909;42.680;26.324;2022-07-29T00:52:16;98618.69;;;25.41;50.11
9740;BME280;4909;42.680;26.324;2022-07-29T00:54:43;98619.88;;;25.46;50.11
9740;BME280;4909;42.680;26.324;2022-07-29T00:57:10;98620.75;;;25.47;49.78
9740;BME280;4909;42.680;26.324;2022-07-29T00:59:38;98614.13;;;25.41;50.08
9740;BME280;4909;42.680;26.324;2022-07-29T01:02:05;98612.22;;;25.42;49.75
9740;BME280;4909;42.680;26.324;2022-07-29T01:04:32;98615.91;;;25.33;49.24
9740;BME280;4909;42.680;26.324;2022-07-29T01:07:00;98618.63;;;25.33;49.13
9740;BME280;4909;42.680;26.324;2022-07-29T01:09:29;98619.78;;;25.22;49.82
9740;BME280;4909;42.680;26.324;2022-07-29T01:11:58;98617.97;;;25.31;50.24
9740;BME280;4909;42.680;26.324;2022-07-29T01:14:26;98599.06;;;25.21;49.31
9740;BME280;4909;42.680;26.324;2022-07-29T01:16:58;98614.25;;;25.32;49.65
9740;BME280;4909;42.680;26.324;2022-07-29T01:19:45;98621.16;;;25.26;49.96
9740;BME280;4909;42.680;26.324;2022-07-29T01:22:27;98617.34;;;25.11;50.29
9740;BME280;4909;42.680;26.324;2022-07-29T01:25:12;98612.28;;;25.16;50.39
9740;BME280;4909;42.680;26.324;2022-07-29T01:27:47;98599.66;;;25.07;50.30
9740;BME280;4909;42.680;26.324;2022-07-29T01:30:21;98611.16;;;25.01;51.24
9740;BME280;4909;42.680;26.324;2022-07-29T01:32:50;98607.97;;;25.05;50.53
9740;BME280;4909;42.680;26.324;2022-07-29T01:35:23;98609.00;;;25.13;50.02
9740;BME280;4909;42.680;26.324;2022-07-29T01:37:55;98604.81;;;25.18;50.62
9740;BME280;4909;42.680;26.324;2022-07-29T01:40:27;98605.00;;;25.25;49.51
9740;BME280;4909;42.680;26.324;2022-07-29T01:42:58;98612.78;;;25.20;49.34
9740;BME280;4909;42.680;26.324;2022-07-29T01:45:31;98606.47;;;25.11;50.07
9740;BME280;4909;42.680;26.324;2022-07-29T01:48:06;98608.81;;;25.06;50.20
9740;BME280;4909;42.680;26.324;2022-07-29T01:50:41;98611.75;;;24.87;50.80
9740;BME280;4909;42.680;26.324;2022-07-29T01:53:12;98617.22;;;24.95;50.14
9740;BME280;4909;42.680;26.324;2022-07-29T01:55:44;98597.28;;;24.86;50.52
9740;BME280;4909;42.680;26.324;2022-07-29T01:58:12;98598.22;;;24.77;50.81
9740;BME280;4909;42.680;26.324;2022-07-29T02:00:43;98611.00;;;24.85;51.09
9740;BME280;4909;42.680;26.324;2022-07-29T02:03:12;98597.59;;;24.83;51.54
9740;BME280;4909;42.680;26.324;2022-07-29T02:05:42;98605.56;;;24.85;50.71
9740;BME280;4909;42.680;26.324;2022-07-29T02:08:13;98596.09;;;24.63;50.80
9740;BME280;4909;42.680;26.324;2022-07-29T02:10:42;98600.72;;;24.71;51.64
9740;BME280;4909;42.680;26.324;2022-07-29T02:13:10;98598.38;;;24.76;50.81
9740;BME280;4909;42.680;26.324;2022-07-29T02:15:39;98598.72;;;24.73;50.74
9740;BME280;4909;42.680;26.324;2022-07-29T02:18:12;98571.34;;;24.66;50.07
9740;BME280;4909;42.680;26.324;2022-07-29T02:20:41;98589.72;;;24.72;51.00
9740;BME280;4909;42.680;26.324;2022-07-29T02:23:10;98594.50;;;24.78;51.02
9740;BME280;4909;42.680;26.324;2022-07-29T02:25:38;98599.63;;;24.81;50.88
9740;BME280;4909;42.680;26.324;2022-07-29T02:28:07;98599.00;;;24.69;51.25
9740;BME280;4909;42.680;26.324;2022-07-29T02:30:36;98606.16;;;24.88;51.11
9740;BME280;4909;42.680;26.324;2022-07-29T02:33:08;98600.41;;;24.91;51.29
9740;BME280;4909;42.680;26.324;2022-07-29T02:35:37;98598.91;;;24.97;50.42
9740;BME280;4909;42.680;26.324;2022-07-29T02:38:05;98595.00;;;24.99;50.21
9740;BME280;4909;42.680;26.324;2022-07-29T02:40:50;98598.06;;;24.96;50.32
9740;BME280;4909;42.680;26.324;2022-07-29T02:43:20;98607.34;;;24.94;51.39
9740;BME280;4909;42.680;26.324;2022-07-29T02:45:51;98594.25;;;24.89;51.70
9740;BME280;4909;42.680;26.324;2022-07-29T02:48:23;98601.94;;;24.94;50.49
9740;BME280;4909;42.680;26.324;2022-07-29T02:51:03;98593.72;;;24.86;50.71
9740;BME280;4909;42.680;26.324;2022-07-29T02:53:33;98590.88;;;24.87;51.32
9740;BME280;4909;42.680;26.324;2022-07-29T02:56:06;98596.13;;;24.89;50.55
9740;BME280;4909;42.680;26.324;2022-07-29T02:58:38;98589.63;;;24.82;51.27
9740;BME280;4909;42.680;26.324;2022-07-29T03:01:11;98597.75;;;24.82;51.10
9740;BME280;4909;42.680;26.324;2022-07-29T03:03:42;98598.44;;;24.84;50.34
9740;BME280;4909;42.680;26.324;2022-07-29T03:06:12;98591.94;;;24.77;51.05
9740;BME280;4909;42.680;26.324;2022-07-29T03:08:40;98595.63;;;24.67;51.61
9740;BME280;4909;42.680;26.324;2022-07-29T03:11:08;98570.53;;;24.48;52.04
9740;BME280;4909;42.680;26.324;2022-07-29T03:13:35;98585.84;;;24.57;51.31
9740;BME280;4909;42.680;26.324;2022-07-29T03:16:04;98608.22;;;24.77;51.03
9740;BME280;4909;42.680;26.324;2022-07-29T03:18:31;98598.38;;;24.76;51.42
9740;BME280;4909;42.680;26.324;2022-07-29T03:21:00;98603.97;;;24.74;51.84
9740;BME280;4909;42.680;26.324;2022-07-29T03:23:27;98606.16;;;24.71;51.54
9740;BME280;4909;42.680;26.324;2022-07-29T03:25:54;98608.34;;;24.67;51.83
9740;BME280;4909;42.680;26.324;2022-07-29T03:28:22;98611.59;;;24.53;51.96
9740;BME280;4909;42.680;26.324;2022-07-29T03:30:49;98605.94;;;24.64;51.67
9740;BME280;4909;42.680;26.324;2022-07-29T03:33:16;98613.53;;;24.60;52.42
9740;BME280;4909;42.680;26.324;2022-07-29T03:35:43;98615.16;;;24.71;52.29
9740;BME280;4909;42.680;26.324;2022-07-29T03:38:11;98616.06;;;24.80;51.27
9740;BME280;4909;42.680;26.324;2022-07-29T03:40:42;98618.09;;;24.78;51.48
9740;BME280;4909;42.680;26.324;2022-07-29T03:43:10;98620.00;;;24.85;51.45
9740;BME280;4909;42.680;26.324;2022-07-29T03:45:38;98620.00;;;24.85;51.36
9740;BME280;4909;42.680;26.324;2022-07-29T03:48:08;98621.34;;;24.81;51.51
9740;BME280;4909;42.680;26.324;2022-07-29T03:50:36;98622.44;;;24.88;51.31
9740;BME280;4909;42.680;26.324;2022-07-29T03:53:04;98607.06;;;24.79;51.10
9740;BME280;4909;42.680;26.324;2022-07-29T03:55:38;98627.28;;;24.85;50.69
9740;BME280;4909;42.680;26.324;2022-07-29T03:58:07;98629.41;;;24.91;50.24
9740;BME280;4909;42.680;26.324;2022-07-29T04:00:34;98621.00;;;24.84;50.96
9740;BME280;4909;42.680;26.324;2022-07-29T04:03:01;98623.66;;;24.94;50.45
9740;BME280;4909;42.680;26.324;2022-07-29T04:05:30;98617.38;;;24.93;51.17
9740;BME280;4909;42.680;26.324;2022-07-29T04:07:57;98621.53;;;25.05;51.04
9740;BME280;4909;42.680;26.324;2022-07-29T04:10:24;98617.16;;;25.13;50.76
9740;BME280;4909;42.680;26.324;2022-07-29T04:12:52;98623.19;;;25.24;49.51
9740;BME280;4909;42.680;26.324;2022-07-29T04:15:19;98625.56;;;25.27;49.55
9740;BME280;4909;42.680;26.324;2022-07-29T04:17:46;98624.75;;;25.27;50.12
9740;BME280;4909;42.680;26.324;2022-07-29T04:20:13;98624.63;;;25.36;49.96
9740;BME280;4909;42.680;26.324;2022-07-29T04:22:40;98632.09;;;25.42;49.55
9740;BME280;4909;42.680;26.324;2022-07-29T04:25:07;98632.31;;;25.49;49.81
9740;BME280;4909;42.680;26.324;2022-07-29T04:27:34;98634.78;;;25.60;49.59
9740;BME280;4909;42.680;26.324;2022-07-29T04:30:22;98637.69;;;25.67;49.53
9740;BME280;4909;42.680;26.324;2022-07-29T04:32:49;98635.03;;;25.75;49.22
9740;BME280;4909;42.680;26.324;2022-07-29T04:35:19;98645.59;;;25.86;49.16
9740;BME280;4909;42.680;26.324;2022-07-29T04:37:52;98616.00;;;25.75;49.22
9740;BME280;4909;42.680;26.324;2022-07-29T04:40:19;98644.94;;;25.92;49.14
9740;BME280;4909;42.680;26.324;2022-07-29T04:42:46;98647.94;;;25.81;49.09
9740;BME280;4909;42.680;26.324;2022-07-29T04:45:13;98645.44;;;25.87;48.91
9740;BME280;4909;42.680;26.324;2022-07-29T04:47:42;98649.56;;;26.00;48.57
9740;BME280;4909;42.680;26.324;2022-07-29T04:50:09;98648.06;;;26.13;48.64
9740;BME280;4909;42.680;26.324;2022-07-29T04:52:36;98657.13;;;26.22;48.43
9740;BME280;4909;42.680;26.324;2022-07-29T04:55:04;98651.69;;;26.22;47.37
9740;BME280;4909;42.680;26.324;2022-07-29T04:57:32;98648.47;;;26.26;47.32
9740;BME280;4909;42.680;26.324;2022-07-29T04:59:59;98651.69;;;26.30;46.95
9740;BME280;4909;42.680;26.324;2022-07-29T05:02:25;98647.63;;;26.34;47.34
9740;BME280;4909;42.680;26.324;2022-07-29T05:04:54;98651.88;;;26.36;47.58
9740;BME280;4909;42.680;26.324;2022-07-29T05:07:21;98663.13;;;26.50;47.16
9740;BME280;4909;42.680;26.324;2022-07-29T05:09:47;98657.38;;;26.61;47.41
9740;BME280;4909;42.680;26.324;2022-07-29T05:12:14;98661.09;;;26.68;47.50
9740;BME280;4909;42.680;26.324;2022-07-29T05:14:41;98661.13;;;26.76;47.43
9740;BME280;4909;42.680;26.324;2022-07-29T05:17:08;98661.28;;;26.82;48.51
9740;BME280;4909;42.680;26.324;2022-07-29T05:19:35;98663.00;;;26.92;48.75
9740;BME280;4909;42.680;26.324;2022-07-29T05:22:03;98663.88;;;27.00;49.34
9740;BME280;4909;42.680;26.324;2022-07-29T05:24:30;98662.84;;;27.09;49.18
9740;BME280;4909;42.680;26.324;2022-07-29T05:26:57;98654.66;;;27.09;49.26
9740;BME280;4909;42.680;26.324;2022-07-29T05:29:24;98663.16;;;27.22;50.17
9740;BME280;4909;42.680;26.324;2022-07-29T05:31:51;98664.19;;;27.30;47.33
9740;BME280;4909;42.680;26.324;2022-07-29T05:34:18;98669.28;;;27.49;48.54
9740;BME280;4909;42.680;26.324;2022-07-29T05:36:45;98669.22;;;27.73;47.82
9740;BME280;4909;42.680;26.324;2022-07-29T05:39:14;98669.31;;;27.88;46.46
9740;BME280;4909;42.680;26.324;2022-07-29T05:41:40;98655.38;;;27.83;46.91
9740;BME280;4909;42.680;26.324;2022-07-29T05:44:07;98670.66;;;27.92;46.08
9740;BME280;4909;42.680;26.324;2022-07-29T05:46:34;98671.16;;;27.95;46.75
9740;BME280;4909;42.680;26.324;2022-07-29T05:49:01;98680.03;;;27.97;46.52
9740;BME280;4909;42.680;26.324;2022-07-29T05:51:28;98678.47;;;28.03;46.42
9740;BME280;4909;42.680;26.324;2022-07-29T05:53:55;98686.78;;;28.09;46.11
9740;BME280;4909;42.680;26.324;2022-07-29T05:56:24;98683.22;;;28.17;45.26
9740;BME280;4909;42.680;26.324;2022-07-29T05:58:51;98686.25;;;28.22;44.82
9740;BME280;4909;42.680;26.324;2022-07-29T06:01:18;98692.38;;;28.24;44.91
9740;BME280;4909;42.680;26.324;2022-07-29T06:03:45;98693.47;;;28.38;45.33
9740;BME280;4909;42.680;26.324;2022-07-29T06:06:12;98698.91;;;28.46;44.96
9740;BME280;4909;42.680;26.324;2022-07-29T06:08:39;98692.06;;;28.50;44.58
9740;BME280;4909;42.680;26.324;2022-07-29T06:11:06;98691.38;;;28.48;44.07
9740;BME280;4909;42.680;26.324;2022-07-29T06:13:35;98694.25;;;28.24;42.24
9740;BME280;4909;42.680;26.324;2022-07-29T06:16:02;98695.19;;;28.39;41.59
9740;BME280;4909;42.680;26.324;2022-07-29T06:18:29;98656.09;;;28.16;41.05
9740;BME280;4909;42.680;26.324;2022-07-29T06:20:56;98686.91;;;28.55;42.31
9740;BME280;4909;42.680;26.324;2022-07-29T06:23:23;98684.78;;;28.65;42.83
9740;BME280;4909;42.680;26.324;2022-07-29T06:25:50;98684.34;;;28.84;42.54
9740;BME280;4909;42.680;26.324;2022-07-29T06:28:17;98685.25;;;29.00;42.01
9740;BME280;4909;42.680;26.324;2022-07-29T06:30:45;98680.91;;;29.05;40.55
9740;BME280;4909;42.680;26.324;2022-07-29T06:33:17;98678.00;;;29.07;40.74
9740;BME280;4909;42.680;26.324;2022-07-29T06:35:44;98680.69;;;28.92;39.76
9740;BME280;4909;42.680;26.324;2022-07-29T06:38:12;98680.53;;;28.85;41.03
9740;BME280;4909;42.680;26.324;2022-07-29T06:40:41;98671.75;;;28.98;40.97
9740;BME280;4909;42.680;26.324;2022-07-29T06:43:26;98669.41;;;29.10;40.74
9740;BME280;4909;42.680;26.324;2022-07-29T06:45:55;98679.53;;;29.47;40.68
9740;BME280;4909;42.680;26.324;2022-07-29T06:48:22;98680.56;;;29.60;40.60
9740;BME280;4909;42.680;26.324;2022-07-29T06:50:49;98670.88;;;29.72;39.38
9740;BME280;4909;42.680;26.324;2022-07-29T06:53:16;98675.22;;;29.82;39.94
9740;BME280;4909;42.680;26.324;2022-07-29T06:55:43;98668.03;;;29.66;39.78
9740;BME280;4909;42.680;26.324;2022-07-29T06:58:09;98679.88;;;29.58;40.14
9740;BME280;4909;42.680;26.324;2022-07-29T07:00:37;98668.41;;;29.25;41.11
9740;BME280;4909;42.680;26.324;2022-07-29T07:03:05;98672.38;;;29.23;40.23
9740;BME280;4909;42.680;26.324;2022-07-29T07:05:32;98673.84;;;29.33;40.37
9740;BME280;4909;42.680;26.324;2022-07-29T07:07:59;98668.31;;;29.56;40.07
9740;BME280;4909;42.680;26.324;2022-07-29T07:10:26;98666.16;;;29.66;40.14
9740;BME280;4909;42.680;26.324;2022-07-29T07:12:53;98670.31;;;29.77;40.68
9740;BME280;4909;42.680;26.324;2022-07-29T07:15:20;98658.56;;;29.68;40.02
9740;BME280;4909;42.680;26.324;2022-07-29T07:17:47;98672.75;;;29.87;39.73
9740;BME280;4909;42.680;26.324;2022-07-29T07:20:16;98665.31;;;29.95;38.97
9740;BME280;4909;42.680;26.324;2022-07-29T07:22:43;98670.31;;;30.06;39.05
9740;BME280;4909;42.680;26.324;2022-07-29T07:25:11;98670.00;;;30.16;38.86
9740;BME280;4909;42.680;26.324;2022-07-29T07:27:38;98673.22;;;30.41;39.29
9740;BME280;4909;42.680;26.324;2022-07-29T07:30:06;98663.69;;;30.15;39.57
9740;BME280;4909;42.680;26.324;2022-07-29T07:32:34;98670.16;;;30.29;38.89
9740;BME280;4909;42.680;26.324;2022-07-29T07:35:01;98675.78;;;30.42;38.04
9740;BME280;4909;42.680;26.324;2022-07-29T07:37:29;98671.28;;;30.35;38.44
9740;BME280;4909;42.680;26.324;2022-07-29T07:39:56;98663.66;;;30.30;38.50
9740;BME280;4909;42.680;26.324;2022-07-29T07:42:23;98665.81;;;30.49;38.26
9740;BME280;4909;42.680;26.324;2022-07-29T07:44:50;98666.69;;;30.56;38.06
9740;BME280;4909;42.680;26.324;2022-07-29T07:47:17;98670.81;;;30.67;37.95
9740;BME280;4909;42.680;26.324;2022-07-29T07:49:45;98669.25;;;30.79;37.47
9740;BME280;4909;42.680;26.324;2022-07-29T07:52:12;98663.94;;;30.99;38.05
9740;BME280;4909;42.680;26.324;2022-07-29T07:54:40;98668.94;;;31.10;37.32
9740;BME280;4909;42.680;26.324;2022-07-29T07:57:08;98667.19;;;31.02;36.88
9740;BME280;4909;42.680;26.324;2022-07-29T07:59:35;98663.31;;;30.97;36.97
9740;BME280;4909;42.680;26.324;2022-07-29T08:02:02;98667.75;;;30.98;36.82
9740;BME280;4909;42.680;26.324;2022-07-29T08:04:29;98661.22;;;30.99;37.23
9740;BME280;4909;42.680;26.324;2022-07-29T08:06:56;98656.13;;;30.96;37.04
9740;BME280;4909;42.680;26.324;2022-07-29T08:09:24;98652.81;;;31.00;37.12
9740;BME280;4909;42.680;26.324;2022-07-29T08:11:53;98655.72;;;30.99;37.73
9740;BME280;4909;42.680;26.324;2022-07-29T08:14:20;98652.41;;;31.25;37.57
9740;BME280;4909;42.680;26.324;2022-07-29T08:16:47;98652.72;;;31.36;36.75
9740;BME280;4909;42.680;26.324;2022-07-29T08:19:14;98652.97;;;31.41;36.20
9740;BME280;4909;42.680;26.324;2022-07-29T08:21:41;98648.91;;;31.37;36.83
9740;BME280;4909;42.680;26.324;2022-07-29T08:24:08;98649.63;;;31.52;36.31
9740;BME280;4909;42.680;26.324;2022-07-29T08:26:53;98645.75;;;31.68;36.11
9740;BME280;4909;42.680;26.324;2022-07-29T08:29:20;98651.31;;;31.81;36.11
9740;BME280;4909;42.680;26.324;2022-07-29T08:31:47;98647.63;;;32.02;34.92
9740;BME280;4909;42.680;26.324;2022-07-29T08:34:14;98655.09;;;31.74;35.97
9740;BME280;4909;42.680;26.324;2022-07-29T08:36:41;98642.09;;;31.89;36.32
9740;BME280;4909;42.680;26.324;2022-07-29T08:39:07;98628.97;;;31.91;35.37
9740;BME280;4909;42.680;26.324;2022-07-29T08:41:35;98648.91;;;32.00;34.90
9740;BME280;4909;42.680;26.324;2022-07-29T08:44:03;98645.22;;;32.27;34.36
9740;BME280;4909;42.680;26.324;2022-07-29T08:46:30;98646.16;;;32.06;34.98
9740;BME280;4909;42.680;26.324;2022-07-29T08:48:57;98638.25;;;31.83;35.44
9740;BME280;4909;42.680;26.324;2022-07-29T08:51:25;98640.72;;;31.44;36.18
9740;BME280;4909;42.680;26.324;2022-07-29T08:53:54;98628.75;;;31.52;36.22
9740;BME280;4909;42.680;26.324;2022-07-29T08:56:22;98633.38;;;31.79;35.70
9740;BME280;4909;42.680;26.324;2022-07-29T08:58:49;98629.09;;;32.11;35.13
9740;BME280;4909;42.680;26.324;2022-07-29T09:01:22;98631.31;;;32.35;34.76
9740;BME280;4909;42.680;26.324;2022-07-29T09:03:49;98616.53;;;32.43;34.49
9740;BME280;4909;42.680;26.324;2022-07-29T09:06:21;98610.72;;;32.11;35.48
9740;BME280;4909;42.680;26.324;2022-07-29T09:08:49;98617.91;;;31.71;35.97
9740;BME280;4909;42.680;26.324;2022-07-29T09:11:16;98619.63;;;31.44;37.04
9740;BME280;4909;42.680;26.324;2022-07-29T09:13:43;98617.91;;;31.71;36.01
9740;BME280;4909;42.680;26.324;2022-07-29T09:16:10;98618.47;;;31.95;35.48
9740;BME280;4909;42.680;26.324;2022-07-29T09:18:39;98623.28;;;32.33;34.82
9740;BME280;4909;42.680;26.324;2022-07-29T09:21:11;98624.81;;;32.56;34.17
9740;BME280;4909;42.680;26.324;2022-07-29T09:24:05;98618.09;;;32.71;33.58
9740;BME280;4909;42.680;26.324;2022-07-29T09:26:34;98614.88;;;32.61;34.17
9740;BME280;4909;42.680;26.324;2022-07-29T09:29:08;98608.94;;;32.38;34.45
9740;BME280;4909;42.680;26.324;2022-07-29T09:31:37;98617.63;;;32.55;34.72
9740;BME280;4909;42.680;26.324;2022-07-29T09:34:06;98615.34;;;32.78;33.91
9740;BME280;4909;42.680;26.324;2022-07-29T09:36:39;98621.81;;;32.38;34.83
9740;BME280;4909;42.680;26.324;2022-07-29T09:39:06;98614.88;;;32.48;34.77
9740;BME280;4909;42.680;26.324;2022-07-29T09:41:44;98610.28;;;32.75;34.51
9740;BME280;4909;42.680;26.324;2022-07-29T09:44:11;98616.19;;;32.98;33.25
9740;BME280;4909;42.680;26.324;2022-07-29T09:46:40;98611.34;;;33.27;33.02
9740;BME280;4909;42.680;26.324;2022-07-29T09:49:10;98612.41;;;33.32;32.89
9740;BME280;4909;42.680;26.324;2022-07-29T09:51:38;98617.03;;;33.51;32.54
9740;BME280;4909;42.680;26.324;2022-07-29T09:54:23;98612.72;;;33.88;32.19
9740;BME280;4909;42.680;26.324;2022-07-29T09:56:51;98607.00;;;33.90;31.35
9740;BME280;4909;42.680;26.324;2022-07-29T09:59:18;98601.72;;;33.88;32.18
9740;BME280;4909;42.680;26.324;2022-07-29T10:01:48;98597.75;;;33.65;31.94
9740;BME280;4909;42.680;26.324;2022-07-29T10:04:17;98600.06;;;33.61;31.66
9740;BME280;4909;42.680;26.324;2022-07-29T10:06:57;98597.50;;;33.66;31.84
9740;BME280;4909;42.680;26.324;2022-07-29T10:09:25;98587.56;;;33.78;31.28
9740;BME280;4909;42.680;26.324;2022-07-29T10:12:06;98595.59;;;33.80;31.81
9740;BME280;4909;42.680;26.324;2022-07-29T10:14:35;98591.50;;;33.95;32.16
9740;BME280;4909;42.680;26.324;2022-07-29T10:17:03;98587.59;;;34.16;32.01
9740;BME280;4909;42.680;26.324;2022-07-29T10:19:32;98592.72;;;34.06;31.02
9740;BME280;4909;42.680;26.324;2022-07-29T10:22:01;98585.22;;;33.82;31.69
9740;BME280;4909;42.680;26.324;2022-07-29T10:24:31;98588.84;;;33.56;31.59
9740;BME280;4909;42.680;26.324;2022-07-29T10:26:59;98593.94;;;33.72;31.41
9740;BME280;4909;42.680;26.324;2022-07-29T10:29:27;98582.72;;;33.67;31.71
9740;BME280;4909;42.680;26.324;2022-07-29T10:32:11;98571.94;;;33.46;32.41
9740;BME280;4909;42.680;26.324;2022-07-29T10:34:55;98576.84;;;33.44;31.31
9740;BME280;4909;42.680;26.324;2022-07-29T10:37:39;98579.38;;;33.32;31.57
9740;BME280;4909;42.680;26.324;2022-07-29T10:40:17;98580.84;;;33.48;31.77
9740;BME280;4909;42.680;26.324;2022-07-29T10:43:16;98573.03;;;33.38;32.17
9740;BME280;4909;42.680;26.324;2022-07-29T10:45:45;98565.19;;;33.42;31.97
9740;BME280;4909;42.680;26.324;2022-07-29T10:48:13;98563.88;;;33.64;31.36
9740;BME280;4909;42.680;26.324;2022-07-29T10:50:57;98561.06;;;33.84;31.72
9740;BME280;4909;42.680;26.324;2022-07-29T10:53:45;98559.66;;;33.68;31.10
9740;BME280;4909;42.680;26.324;2022-07-29T10:56:23;98569.38;;;33.57;31.49
9740;BME280;4909;42.680;26.324;2022-07-29T10:59:24;98560.53;;;33.49;30.83
9740;BME280;4909;42.680;26.324;2022-07-29T11:01:52;98557.38;;;33.32;31.15
9740;BME280;4909;42.680;26.324;2022-07-29T11:07:26;98550.41;;;33.30;31.15
9740;BME280;4909;42.680;26.324;2022-07-29T11:10:19;98554.81;;;33.37;32.07
9740;BME280;4909;42.680;26.324;2022-07-29T11:12:47;98537.03;;;33.46;32.00
9740;BME280;4909;42.680;26.324;2022-07-29T11:15:14;98547.19;;;33.46;31.95
9740;BME280;4909;42.680;26.324;2022-07-29T11:18:03;98539.19;;;33.31;31.85
9740;BME280;4909;42.680;26.324;2022-07-29T11:20:40;98544.91;;;33.23;31.76
9740;BME280;4909;42.680;26.324;2022-07-29T11:23:25;98536.22;;;33.13;31.59
9740;BME280;4909;42.680;26.324;2022-07-29T11:26:15;98543.84;;;32.98;32.24
9740;BME280;4909;42.680;26.324;2022-07-29T11:28:59;98536.66;;;33.03;32.05
9740;BME280;4909;42.680;26.324;2022-07-29T11:31:38;98529.06;;;33.05;31.86
9740;BME280;4909;42.680;26.324;2022-07-29T11:34:23;98530.31;;;33.09;31.19
9740;BME280;4909;42.680;26.324;2022-07-29T11:37:22;98535.41;;;33.26;31.79
9740;BME280;4909;42.680;26.324;2022-07-29T11:40:17;98529.66;;;33.14;31.17
9740;BME280;4909;42.680;26.324;2022-07-29T11:42:48;98528.22;;;33.05;31.41
9740;BME280;4909;42.680;26.324;2022-07-29T11:45:20;98526.94;;;32.88;31.69
9740;BME280;4909;42.680;26.324;2022-07-29T11:47:53;98519.75;;;32.93;31.39
9740;BME280;4909;42.680;26.324;2022-07-29T11:50:34;98523.75;;;33.10;31.68
9740;BME280;4909;42.680;26.324;2022-07-29T11:53:09;98515.72;;;33.02;31.35
9740;BME280;4909;42.680;26.324;2022-07-29T11:55:39;98520.16;;;33.10;31.80
9740;BME280;4909;42.680;26.324;2022-07-29T11:58:07;98521.44;;;33.07;31.68
9740;BME280;4909;42.680;26.324;2022-07-29T12:00:36;98502.00;;;32.96;31.35
9740;BME280;4909;42.680;26.324;2022-07-29T12:03:05;98510.44;;;32.94;30.00
9740;BME280;4909;42.680;26.324;2022-07-29T12:05:35;98489.34;;;32.82;31.12
9740;BME280;4909;42.680;26.324;2022-07-29T12:08:11;98507.91;;;32.93;30.72
9740;BME280;4909;42.680;26.324;2022-07-29T12:10:40;98507.06;;;32.92;30.85
9740;BME280;4909;42.680;26.324;2022-07-29T12:13:08;98484.06;;;32.67;31.16
9740;BME280;4909;42.680;26.324;2022-07-29T12:15:34;98494.63;;;32.76;31.49
9740;BME280;4909;42.680;26.324;2022-07-29T12:18:13;98495.03;;;32.73;32.21
9740;BME280;4909;42.680;26.324;2022-07-29T12:20:40;98498.00;;;32.85;32.41
9740;BME280;4909;42.680;26.324;2022-07-29T12:23:08;98494.81;;;32.95;31.08
9740;BME280;4909;42.680;26.324;2022-07-29T12:25:37;98492.47;;;32.98;31.87
9740;BME280;4909;42.680;26.324;2022-07-29T12:28:08;98485.28;;;32.97;30.86
9740;BME280;4909;42.680;26.324;2022-07-29T12:30:42;98479.16;;;32.95;31.37
9740;BME280;4909;42.680;26.324;2022-07-29T12:33:18;98474.72;;;32.88;30.77
9740;BME280;4909;42.680;26.324;2022-07-29T12:35:48;98466.91;;;32.85;31.66
9740;BME280;4909;42.680;26.324;2022-07-29T12:38:15;98469.81;;;33.09;31.66
9740;BME280;4909;42.680;26.324;2022-07-29T12:40:44;98471.91;;;33.14;31.60
9740;BME280;4909;42.680;26.324;2022-07-29T12:43:14;98465.16;;;33.16;31.66
9740;BME280;4909;42.680;26.324;2022-07-29T12:45:43;98467.69;;;33.11;31.54
9740;BME280;4909;42.680;26.324;2022-07-29T12:48:10;98466.22;;;33.02;31.53
9740;BME280;4909;42.680;26.324;2022-07-29T12:50:55;98465.81;;;33.05;31.46
9740;BME280;4909;42.680;26.324;2022-07-29T12:53:22;98464.75;;;33.06;31.50
9740;BME280;4909;42.680;26.324;2022-07-29T12:55:50;98465.81;;;33.05;31.19
9740;BME280;4909;42.680;26.324;2022-07-29T12:58:30;98458.41;;;32.99;31.61
9740;BME280;4909;42.680;26.324;2022-07-29T13:01:06;98457.97;;;33.02;31.64
9740;BME280;4909;42.680;26.324;2022-07-29T13:03:50;98460.72;;;33.09;31.51
9740;BME280;4909;42.680;26.324;2022-07-29T13:06:31;98462.00;;;33.19;31.18
9740;BME280;4909;42.680;26.324;2022-07-29T13:09:06;98448.84;;;33.15;31.19
9740;BME280;4909;42.680;26.324;2022-07-29T13:11:34;98455.00;;;33.10;30.50
9740;BME280;4909;42.680;26.324;2022-07-29T13:14:04;98444.25;;;33.15;31.27
9740;BME280;4909;42.680;26.324;2022-07-29T13:16:31;98449.94;;;33.21;30.93
9740;BME280;4909;42.680;26.324;2022-07-29T13:19:09;98443.38;;;33.08;31.09
9740;BME280;4909;42.680;26.324;2022-07-29T13:21:37;98438.06;;;33.13;30.79
9740;BME280;4909;42.680;26.324;2022-07-29T13:24:05;98440.16;;;33.11;30.96
9740;BME280;4909;42.680;26.324;2022-07-29T13:26:32;98438.72;;;33.09;30.68
9740;BME280;4909;42.680;26.324;2022-07-29T13:28:59;98442.72;;;33.13;30.62